TAF KSHR
AMD KSHR 090743Z 0908/1006 34010KT 3/4SM -SN BR OVC005 TEMPO 0908/0910 3SM -SHSN FEW008 OVC012 FM091000 31015G22KT P6SM VCSH FEW015 BKN040 FM091300 31009KT P6SM SCT050 FM092100 VRB04KT P6SM FEW060 BKN100=
METAR KSHR
WC KSHR
WS KSHR
WV KSHR